createdAt,value
2023-04-09T00:02:10.979Z,20.15
2023-04-09T00:04:37.647Z,20.83
2023-04-09T00:07:04.201Z,23.67
2023-04-09T00:09:30.996Z,19.60
2023-04-09T00:11:58.285Z,22.42
2023-04-09T00:14:24.971Z,27.52
2023-04-09T00:16:51.512Z,22.50
2023-04-09T00:19:18.025Z,21.95
2023-04-09T00:21:44.574Z,22.23
2023-04-09T00:24:11.275Z,25.38
2023-04-09T00:26:37.860Z,22.50
2023-04-09T00:29:04.398Z,25.17
2023-04-09T00:31:30.994Z,20.20
2023-04-09T00:33:57.550Z,19.83
2023-04-09T00:36:25.922Z,22.25
2023-04-09T00:38:54.197Z,23.05
2023-04-09T00:41:20.922Z,18.65
2023-04-09T00:43:47.449Z,27.33
2023-04-09T00:46:14.609Z,24.33
2023-04-09T00:48:41.839Z,23.05
2023-04-09T00:51:08.960Z,27.88
2023-04-09T00:53:35.611Z,27.05
2023-04-09T00:56:02.985Z,28.27
2023-04-09T00:58:29.722Z,26.15
2023-04-09T01:00:56.442Z,27.35
2023-04-09T01:03:23.529Z,27.75
2023-04-09T01:06:03.412Z,25.00
2023-04-09T01:08:32.971Z,28.33
2023-04-09T01:11:10.043Z,27.58
2023-04-09T01:13:53.450Z,26.67
2023-04-09T01:16:24.279Z,32.95
2023-04-09T01:18:56.551Z,26.77
2023-04-09T01:21:27.559Z,26.60
2023-04-09T01:24:06.945Z,25.38
2023-04-09T01:27:01.576Z,28.30
2023-04-09T01:29:33.429Z,23.55
2023-04-09T01:32:03.101Z,24.08
2023-04-09T01:34:31.061Z,30.50
2023-04-09T01:37:00.792Z,26.38
2023-04-09T01:39:27.648Z,26.15
2023-04-09T01:41:56.240Z,24.05
2023-04-09T01:44:24.559Z,24.13
2023-04-09T01:46:51.879Z,30.05
2023-04-09T01:49:18.831Z,27.15
2023-04-09T01:51:46.000Z,29.48
2023-04-09T01:54:12.588Z,28.40
2023-04-09T01:56:47.858Z,30.25
2023-04-09T01:59:14.988Z,30.13
2023-04-09T02:01:47.072Z,32.45
2023-04-09T02:04:19.256Z,31.63
2023-04-09T02:09:13.341Z,31.08
2023-04-09T02:11:42.243Z,35.10
2023-04-09T02:14:11.301Z,36.65
2023-04-09T02:16:39.927Z,31.58
2023-04-09T02:19:06.519Z,31.60
2023-04-09T02:21:33.274Z,30.73
2023-04-09T02:23:59.832Z,33.67
2023-04-09T02:26:26.461Z,29.42
2023-04-09T02:28:53.270Z,34.80
2023-04-09T02:31:20.108Z,33.40
2023-04-09T02:33:46.683Z,27.98
2023-04-09T02:36:13.848Z,28.60
2023-04-09T02:38:42.047Z,26.15
2023-04-09T02:41:09.307Z,30.50
2023-04-09T02:43:36.085Z,29.40
2023-04-09T02:46:02.872Z,31.65
2023-04-09T02:48:29.506Z,32.20
2023-04-09T02:50:57.439Z,29.25
2023-04-09T02:53:24.078Z,26.25
2023-04-09T02:55:50.610Z,26.67
2023-04-09T02:58:17.155Z,26.20
2023-04-09T03:00:43.667Z,27.27
2023-04-09T03:03:10.702Z,22.38
2023-04-09T03:05:38.063Z,24.25
2023-04-09T03:08:04.742Z,25.73
2023-04-09T03:10:31.424Z,24.67
2023-04-09T03:12:57.914Z,24.17
2023-04-09T03:15:24.422Z,24.00
2023-04-09T03:17:51.220Z,26.65
2023-04-09T03:20:17.790Z,24.40
2023-04-09T03:22:44.340Z,23.10
2023-04-09T03:25:10.975Z,25.27
2023-04-09T03:27:37.549Z,27.52
2023-04-09T03:30:04.504Z,24.17
2023-04-09T03:32:31.254Z,25.50
2023-04-09T03:34:57.822Z,24.25
2023-04-09T03:37:24.320Z,22.00
2023-04-09T03:39:50.931Z,23.80
2023-04-09T03:42:17.484Z,26.25
2023-04-09T03:44:43.987Z,27.35
2023-04-09T03:47:10.657Z,26.45
2023-04-09T03:49:37.340Z,27.85
2023-04-09T03:52:03.975Z,33.85
2023-04-09T03:54:30.991Z,24.92
2023-04-09T03:56:57.618Z,28.17
2023-04-09T03:59:24.753Z,25.80
2023-04-09T04:01:51.783Z,25.33
2023-04-09T04:04:19.900Z,32.80
2023-04-09T04:06:47.738Z,28.52
2023-04-09T04:09:14.448Z,27.67
2023-04-09T04:11:40.986Z,31.85
2023-04-09T04:14:07.510Z,31.55
2023-04-09T04:16:34.093Z,32.88
2023-04-09T04:19:00.725Z,33.42
2023-04-09T04:21:27.303Z,31.20
2023-04-09T04:23:53.843Z,29.08
2023-04-09T04:26:20.427Z,27.02
2023-04-09T04:28:47.019Z,35.22
2023-04-09T04:31:13.651Z,34.00
2023-04-09T04:33:41.758Z,37.95
2023-04-09T04:36:10.444Z,29.20
2023-04-09T04:38:37.296Z,29.60
2023-04-09T04:41:04.036Z,33.60
2023-04-09T04:43:31.452Z,30.23
2023-04-09T04:45:58.165Z,30.20
2023-04-09T04:48:24.934Z,29.77
2023-04-09T04:50:57.032Z,31.75
2023-04-09T04:53:23.683Z,29.63
2023-04-09T04:55:50.545Z,26.33
2023-04-09T04:58:17.452Z,23.48
2023-04-09T05:00:44.235Z,22.08
2023-04-09T05:03:11.261Z,23.05
2023-04-09T05:05:37.827Z,23.75
2023-04-09T05:08:04.615Z,21.35
2023-04-09T05:10:31.270Z,23.70
2023-04-09T05:12:57.822Z,25.85
2023-04-09T05:16:10.409Z,26.25
2023-04-09T05:21:03.544Z,28.42
2023-04-09T05:23:30.087Z,23.42
2023-04-09T05:25:56.615Z,25.42
2023-04-09T05:28:23.185Z,23.83
2023-04-09T05:30:49.792Z,24.80
2023-04-09T05:33:16.432Z,27.10
2023-04-09T05:35:43.013Z,23.42
2023-04-09T05:38:09.564Z,26.35
2023-04-09T05:40:36.428Z,26.05
2023-04-09T05:43:02.987Z,24.17
2023-04-09T05:45:29.553Z,25.63
2023-04-09T05:47:56.698Z,27.25
2023-04-09T05:50:23.696Z,23.45
2023-04-09T05:52:50.459Z,24.77
2023-04-09T05:55:17.107Z,27.23
2023-04-09T05:57:45.412Z,25.27
2023-04-09T06:00:13.465Z,27.38
2023-04-09T06:02:40.074Z,28.23
2023-04-09T06:05:06.884Z,26.75
2023-04-09T06:07:33.596Z,25.38
2023-04-09T06:10:00.328Z,28.20
2023-04-09T06:12:26.829Z,28.05
2023-04-09T06:14:53.353Z,27.75
2023-04-09T06:17:19.945Z,25.10
2023-04-09T06:19:46.550Z,25.73
2023-04-09T06:22:13.124Z,29.83
2023-04-09T06:24:39.679Z,25.35
2023-04-09T06:27:06.695Z,28.23
2023-04-09T06:29:33.301Z,23.42
2023-04-09T06:31:59.796Z,24.77
2023-04-09T06:34:26.308Z,23.20
2023-04-09T06:36:52.945Z,24.20
2023-04-09T06:39:19.497Z,25.17
2023-04-09T06:41:46.599Z,23.77
2023-04-09T06:44:13.718Z,20.95
2023-04-09T06:46:40.660Z,23.75
2023-04-09T06:49:07.221Z,23.25
2023-04-09T06:51:33.833Z,18.90
2023-04-09T06:54:00.441Z,22.13
2023-04-09T06:56:27.046Z,20.02
2023-04-09T06:58:53.674Z,20.15
2023-04-09T07:01:20.539Z,18.60
2023-04-09T07:03:47.203Z,20.95
2023-04-09T07:06:13.824Z,21.50
2023-04-09T07:08:40.540Z,21.77
2023-04-09T07:11:07.266Z,18.73
2023-04-09T07:13:34.038Z,18.85
2023-04-09T07:16:00.680Z,19.65
2023-04-09T07:18:27.379Z,21.40
2023-04-09T07:20:53.927Z,21.52
2023-04-09T07:23:20.567Z,20.23
2023-04-09T07:25:47.328Z,21.02
2023-04-09T07:28:14.029Z,20.77
2023-04-09T07:30:41.220Z,19.15
2023-04-09T07:33:07.816Z,23.40
2023-04-09T07:35:34.837Z,20.10
2023-04-09T07:38:01.469Z,19.15
2023-04-09T07:40:28.203Z,18.58
2023-04-09T07:42:55.720Z,22.35
2023-04-09T07:45:22.259Z,18.83
2023-04-09T07:47:48.814Z,18.50
2023-04-09T07:50:15.949Z,18.13
2023-04-09T07:52:42.788Z,62.90
2023-04-09T07:55:09.495Z,74.93
2023-04-09T07:57:36.916Z,19.20
2023-04-09T08:00:04.377Z,106.07
2023-04-09T08:02:31.236Z,28.63
2023-04-09T08:04:58.303Z,20.08
2023-04-09T08:07:24.930Z,18.38
2023-04-09T08:09:51.428Z,17.67
2023-04-09T08:12:18.027Z,18.67
2023-04-09T08:14:44.587Z,33.80
2023-04-09T08:17:11.207Z,23.42
2023-04-09T08:19:39.773Z,23.13
2023-04-09T08:22:07.733Z,18.50
2023-04-09T08:24:34.825Z,28.27
2023-04-09T08:27:01.998Z,22.70
2023-04-09T08:29:28.559Z,21.40
2023-04-09T08:31:55.192Z,29.83
2023-04-09T08:34:22.200Z,35.38
2023-04-09T08:36:49.942Z,17.60
2023-04-09T08:39:20.850Z,19.38
2023-04-09T08:41:48.397Z,16.85
2023-04-09T08:44:14.993Z,18.83
2023-04-09T08:46:42.065Z,17.20
2023-04-09T08:49:10.883Z,63.15
2023-04-09T08:51:37.466Z,85.32
2023-04-09T08:54:05.056Z,16.98
2023-04-09T08:56:32.582Z,24.20
2023-04-09T08:58:59.344Z,16.65
2023-04-09T09:01:28.040Z,24.67
2023-04-09T09:03:59.090Z,15.48
2023-04-09T09:06:29.340Z,17.73
2023-04-09T09:09:05.494Z,14.55
2023-04-09T09:11:33.484Z,16.50
2023-04-09T09:14:10.832Z,14.60
2023-04-09T09:16:43.199Z,13.60
2023-04-09T09:19:31.126Z,13.25
2023-04-09T09:22:01.826Z,12.18
2023-04-09T09:24:28.630Z,14.98
2023-04-09T09:26:55.836Z,12.77
2023-04-09T09:29:22.572Z,11.77
2023-04-09T09:31:51.977Z,12.02
2023-04-09T09:34:21.115Z,11.45
2023-04-09T09:36:48.021Z,10.40
2023-04-09T09:39:17.424Z,10.25
2023-04-09T09:41:45.282Z,10.85
2023-04-09T09:44:13.421Z,14.32
2023-04-09T09:46:42.357Z,12.30
2023-04-09T09:49:09.605Z,14.50
2023-04-09T09:51:39.234Z,10.77
2023-04-09T09:54:07.825Z,10.48
2023-04-09T09:56:39.687Z,10.38
2023-04-09T09:59:23.636Z,11.15
2023-04-09T10:01:59.961Z,13.02
2023-04-09T10:04:29.793Z,11.88
2023-04-09T10:06:57.627Z,10.15
2023-04-09T10:09:28.132Z,8.07
2023-04-09T10:11:56.028Z,8.43
2023-04-09T10:14:23.193Z,11.70
2023-04-09T10:16:49.857Z,12.15
2023-04-09T10:19:17.130Z,10.63
2023-04-09T10:22:21.459Z,9.05
2023-04-09T10:24:48.385Z,10.32
2023-04-09T10:27:17.365Z,11.90
2023-04-09T10:29:49.059Z,9.13
2023-04-09T10:32:28.479Z,12.07
2023-04-09T10:35:01.686Z,9.63
2023-04-09T10:37:28.762Z,9.88
2023-04-09T10:39:56.582Z,8.77
2023-04-09T10:42:42.079Z,9.90
2023-04-09T10:45:16.821Z,7.78
2023-04-09T10:47:44.318Z,8.75
2023-04-09T10:50:24.103Z,7.90
2023-04-09T10:52:56.627Z,8.65
2023-04-09T10:55:39.125Z,7.88
2023-04-09T10:58:12.350Z,7.22
2023-04-09T11:00:41.826Z,6.45
2023-04-09T11:03:22.258Z,7.80
2023-04-09T11:05:52.639Z,8.82
2023-04-09T11:08:19.538Z,8.90
2023-04-09T11:10:49.775Z,9.95
2023-04-09T11:13:20.074Z,6.57
2023-04-09T11:15:46.742Z,7.28
2023-04-09T11:18:24.518Z,7.00
2023-04-09T11:20:55.367Z,10.52
2023-04-09T11:23:22.127Z,7.30
2023-04-09T11:25:51.148Z,8.45
2023-04-09T11:28:18.750Z,7.85
2023-04-09T11:30:46.945Z,7.95
2023-04-09T11:33:14.178Z,10.23
2023-04-09T11:35:40.982Z,7.60
2023-04-09T11:38:09.187Z,7.45
2023-04-09T11:40:36.405Z,7.70
2023-04-09T11:43:03.260Z,7.95
2023-04-09T11:45:31.720Z,6.32
2023-04-09T11:47:58.919Z,8.30
2023-04-09T11:50:25.844Z,6.47
2023-04-09T11:52:52.652Z,7.22
2023-04-09T11:55:26.933Z,7.00
2023-04-09T11:57:57.493Z,6.57
2023-04-09T12:00:25.112Z,10.13
2023-04-09T12:02:59.722Z,6.13
2023-04-09T12:05:30.636Z,7.78
2023-04-09T12:08:07.544Z,7.05
2023-04-09T12:10:38.119Z,9.15
2023-04-09T12:13:10.493Z,7.35
2023-04-09T12:15:41.003Z,7.00
2023-04-09T12:18:12.409Z,7.40
2023-04-09T12:20:40.017Z,6.38
2023-04-09T12:23:08.291Z,6.20
2023-04-09T12:25:39.251Z,5.93
2023-04-09T12:28:07.498Z,5.43
2023-04-09T12:30:35.424Z,5.97
2023-04-09T12:33:03.488Z,5.75
2023-04-09T12:35:30.426Z,5.88
2023-04-09T12:37:57.235Z,5.60
2023-04-09T12:40:23.757Z,6.57
2023-04-09T12:42:50.350Z,5.80
2023-04-09T12:45:18.950Z,5.78
2023-04-09T12:47:46.019Z,5.63
2023-04-09T12:50:15.023Z,6.20
2023-04-09T12:52:42.195Z,5.28
2023-04-09T12:55:09.288Z,4.85
2023-04-09T12:57:37.375Z,5.90
2023-04-09T13:00:05.931Z,5.20
2023-04-09T13:02:32.670Z,5.95
2023-04-09T13:04:59.405Z,6.88
2023-04-09T13:07:29.192Z,5.70
2023-04-09T13:09:56.807Z,8.50
2023-04-09T13:12:24.140Z,5.28
2023-04-09T13:14:53.673Z,5.60
2023-04-09T13:17:20.630Z,5.93
2023-04-09T13:19:47.384Z,5.00
2023-04-09T13:22:14.035Z,5.20
2023-04-09T13:24:40.798Z,5.43
2023-04-09T13:27:09.672Z,4.95
2023-04-09T13:29:36.658Z,6.35
2023-04-09T13:32:07.174Z,5.60
2023-04-09T13:34:35.124Z,6.38
2023-04-09T13:37:04.993Z,5.85
2023-04-09T13:39:31.530Z,4.60
2023-04-09T13:41:58.249Z,7.40
2023-04-09T13:44:25.799Z,4.00
2023-04-09T13:46:52.800Z,3.72
2023-04-09T13:49:19.458Z,4.20
2023-04-09T13:51:46.692Z,5.00
2023-04-09T13:54:13.457Z,6.60
2023-04-09T13:56:40.492Z,4.75
2023-04-09T13:59:07.199Z,3.80
2023-04-09T14:01:34.463Z,4.80
2023-04-09T14:04:01.387Z,6.40
2023-04-09T14:06:28.105Z,4.63
2023-04-09T14:08:55.907Z,4.88
2023-04-09T14:11:22.548Z,4.68
2023-04-09T14:13:49.146Z,4.53
2023-04-09T14:16:15.830Z,4.55
2023-04-09T14:18:42.441Z,4.18
2023-04-09T14:21:10.325Z,4.45
2023-04-09T14:23:39.701Z,3.25
2023-04-09T14:26:07.028Z,4.22
2023-04-09T14:28:33.763Z,4.75
2023-04-09T14:31:00.622Z,3.40
2023-04-09T14:33:27.636Z,3.67
2023-04-09T14:35:54.404Z,3.53
2023-04-09T14:38:20.951Z,3.15
2023-04-09T14:40:47.539Z,3.42
2023-04-09T14:43:14.135Z,7.70
2023-04-09T14:45:40.671Z,3.85
2023-04-09T14:48:07.283Z,3.40
2023-04-09T14:50:34.295Z,4.03
2023-04-09T14:53:01.476Z,4.35
2023-04-09T14:55:28.340Z,5.03
2023-04-09T14:57:55.000Z,3.65
2023-04-09T15:00:22.701Z,3.03
2023-04-09T15:02:49.502Z,3.88
2023-04-09T15:05:16.231Z,4.85
2023-04-09T15:07:43.816Z,5.03
2023-04-09T15:10:11.025Z,3.28
2023-04-09T15:12:37.611Z,4.32
2023-04-09T15:15:08.850Z,5.50
2023-04-09T15:17:35.799Z,3.25
2023-04-09T15:20:02.422Z,4.45
2023-04-09T15:22:29.011Z,3.45
2023-04-09T15:24:55.724Z,3.42
2023-04-09T15:27:22.316Z,3.85
2023-04-09T15:29:48.951Z,4.00
2023-04-09T15:32:15.529Z,3.60
2023-04-09T15:34:42.128Z,4.00
2023-04-09T15:37:08.664Z,6.03
2023-04-09T15:39:35.409Z,3.20
2023-04-09T15:42:02.074Z,3.00
2023-04-09T15:44:28.885Z,4.25
2023-04-09T15:46:56.199Z,5.60
2023-04-09T15:49:23.333Z,2.78
2023-04-09T15:51:49.908Z,3.25
2023-04-09T15:54:16.654Z,5.28
2023-04-09T15:56:43.253Z,3.25
2023-04-09T15:59:10.074Z,3.28
2023-04-09T16:01:36.979Z,3.40
2023-04-09T16:04:04.783Z,3.45
2023-04-09T16:06:31.937Z,3.38
2023-04-09T16:08:58.673Z,2.78
2023-04-09T16:11:26.044Z,3.40
2023-04-09T16:13:52.779Z,3.35
2023-04-09T16:16:19.669Z,2.80
2023-04-09T16:18:46.311Z,4.63
2023-04-09T16:21:13.080Z,6.20
2023-04-09T16:23:39.940Z,2.88
2023-04-09T16:26:07.016Z,7.53
2023-04-09T16:28:33.754Z,4.45
2023-04-09T16:31:00.455Z,5.72
2023-04-09T16:33:27.089Z,3.08
2023-04-09T16:35:53.666Z,3.00
2023-04-09T16:38:20.308Z,3.45
2023-04-09T16:40:46.967Z,5.22
2023-04-09T16:43:13.500Z,4.72
2023-04-09T16:48:24.670Z,3.00
2023-04-09T16:50:51.217Z,2.78
2023-04-09T16:53:17.968Z,4.20
2023-04-09T16:55:44.913Z,7.10
2023-04-09T16:58:11.521Z,9.52
2023-04-09T17:00:40.021Z,3.63
2023-04-09T17:03:06.897Z,2.88
2023-04-09T17:05:33.835Z,3.80
2023-04-09T17:08:01.167Z,3.10
2023-04-09T17:10:27.986Z,2.83
2023-04-09T17:12:54.811Z,3.55
2023-04-09T17:15:22.682Z,3.92
2023-04-09T17:17:51.341Z,3.75
2023-04-09T17:20:18.085Z,5.32
2023-04-09T17:22:44.677Z,4.13
2023-04-09T17:25:11.498Z,2.88
2023-04-09T17:27:38.028Z,3.17
2023-04-09T17:30:05.163Z,4.65
2023-04-09T17:32:31.914Z,6.03
2023-04-09T17:34:59.659Z,5.15
2023-04-09T17:37:28.689Z,4.10
2023-04-09T17:39:55.508Z,3.97
2023-04-09T17:42:23.341Z,4.57
2023-04-09T17:44:49.873Z,4.20
2023-04-09T17:47:17.041Z,4.03
2023-04-09T17:49:43.793Z,4.13
2023-04-09T17:52:10.354Z,4.45
2023-04-09T17:54:38.103Z,6.15
2023-04-09T17:57:07.235Z,4.28
2023-04-09T17:59:37.020Z,5.85
2023-04-09T18:02:03.823Z,4.78
2023-04-09T18:04:31.642Z,9.43
2023-04-09T18:06:58.439Z,4.90
2023-04-09T18:09:25.022Z,4.95
2023-04-09T18:11:56.259Z,7.57
2023-04-09T18:14:23.020Z,7.70
2023-04-09T18:16:49.795Z,4.97
2023-04-09T18:19:16.593Z,5.97
2023-04-09T18:21:43.152Z,6.70
2023-04-09T18:24:09.702Z,7.28
2023-04-09T18:26:36.704Z,5.30
2023-04-09T18:29:03.372Z,4.93
2023-04-09T18:31:29.975Z,8.25
2023-04-09T18:33:56.573Z,10.10
2023-04-09T18:36:23.436Z,6.20
2023-04-09T18:38:49.997Z,4.10
2023-04-09T18:41:26.607Z,6.03
2023-04-09T18:43:53.938Z,6.00
2023-04-09T18:46:20.524Z,6.90
2023-04-09T18:48:47.148Z,5.25
2023-04-09T18:51:14.552Z,5.68
2023-04-09T18:53:42.053Z,6.20
2023-04-09T18:56:09.129Z,8.45
2023-04-09T18:58:36.351Z,6.03
2023-04-09T19:01:11.209Z,9.13
2023-04-09T19:03:38.629Z,6.38
2023-04-09T19:06:19.685Z,7.40
2023-04-09T19:08:47.915Z,5.30
2023-04-09T19:11:15.218Z,7.80
2023-04-09T19:13:41.848Z,7.90
2023-04-09T19:16:12.361Z,4.60
2023-04-09T19:18:38.951Z,7.00
2023-04-09T19:21:07.487Z,5.25
2023-04-09T19:23:34.597Z,7.28
2023-04-09T19:26:02.328Z,6.38
2023-04-09T19:28:29.108Z,4.55
2023-04-09T19:30:55.738Z,8.48
2023-04-09T19:33:24.312Z,8.45
2023-04-09T19:35:51.674Z,5.40
2023-04-09T19:38:19.034Z,6.28
2023-04-09T19:40:46.437Z,6.20
2023-04-09T19:43:13.841Z,9.05
2023-04-09T19:45:42.452Z,6.72
2023-04-09T19:48:09.187Z,4.85
2023-04-09T19:50:46.547Z,5.28
2023-04-09T19:53:13.170Z,6.25
2023-04-09T19:55:39.743Z,7.90
2023-04-09T19:58:06.928Z,9.50
2023-04-09T20:00:34.105Z,8.27
2023-04-09T20:03:01.186Z,8.55
2023-04-09T20:05:27.845Z,6.22
2023-04-09T20:07:54.808Z,6.22
2023-04-09T20:10:21.566Z,6.70
2023-04-09T20:12:49.672Z,6.35
2023-04-09T20:15:19.938Z,6.32
2023-04-09T20:17:48.409Z,6.22
2023-04-09T20:20:17.917Z,6.00
2023-04-09T20:22:47.507Z,8.35
2023-04-09T20:25:14.201Z,6.50
2023-04-09T20:27:41.090Z,6.80
2023-04-09T20:30:08.302Z,6.15
2023-04-09T20:32:36.928Z,5.75
2023-04-09T20:35:04.705Z,4.85
2023-04-09T20:37:31.269Z,4.82
2023-04-09T20:39:59.452Z,5.53
2023-04-09T20:42:26.258Z,5.65
2023-04-09T20:44:53.222Z,8.20
2023-04-09T20:47:21.107Z,6.05
2023-04-09T20:49:49.028Z,5.57
2023-04-09T20:52:15.563Z,6.05
2023-04-09T20:54:43.061Z,7.07
2023-04-09T20:57:11.061Z,6.60
2023-04-09T20:59:39.429Z,4.78
2023-04-09T21:02:06.122Z,6.07
2023-04-09T21:04:32.931Z,7.13
2023-04-09T21:06:59.478Z,5.43
2023-04-09T21:09:26.195Z,5.07
2023-04-09T21:11:52.739Z,6.30
2023-04-09T21:14:19.264Z,7.95
2023-04-09T21:16:45.991Z,6.10
2023-04-09T21:19:12.537Z,6.90
2023-04-09T21:21:39.114Z,5.55
2023-04-09T21:24:05.704Z,6.07
2023-04-09T21:26:48.691Z,6.45
2023-04-09T21:29:17.250Z,6.93
2023-04-09T21:31:43.851Z,6.18
2023-04-09T21:34:10.411Z,6.10
2023-04-09T21:36:39.260Z,4.95
2023-04-09T21:39:05.963Z,6.80
2023-04-09T21:41:32.539Z,5.38
2023-04-09T21:44:03.465Z,5.18
2023-04-09T21:46:30.072Z,5.70
2023-04-09T21:48:56.842Z,4.95
2023-04-09T21:51:23.421Z,6.45
2023-04-09T21:53:50.183Z,5.82
2023-04-09T21:56:16.722Z,5.93
2023-04-09T21:58:43.340Z,6.18
2023-04-09T22:01:22.437Z,5.03
2023-04-09T22:03:54.935Z,5.65
2023-04-09T22:06:21.478Z,7.50
2023-04-09T22:08:55.345Z,8.52
2023-04-09T22:11:28.386Z,6.55
2023-04-09T22:13:56.785Z,8.45
2023-04-09T22:16:24.078Z,6.53
2023-04-09T22:18:51.528Z,5.15
2023-04-09T22:21:18.432Z,6.38
2023-04-09T22:23:45.411Z,5.93
2023-04-09T22:26:11.988Z,7.40
2023-04-09T22:28:38.653Z,6.25
2023-04-09T22:31:05.955Z,5.88
2023-04-09T22:33:32.860Z,5.97
2023-04-09T22:35:59.697Z,6.03
2023-04-09T22:38:26.544Z,4.20
2023-04-09T22:40:53.224Z,5.32
2023-04-09T22:43:19.830Z,4.47
2023-04-09T22:45:54.302Z,4.88
2023-04-09T22:48:22.043Z,5.50
2023-04-09T22:50:49.479Z,5.35
2023-04-09T22:53:19.405Z,6.70
2023-04-09T22:55:54.509Z,7.30
2023-04-09T22:58:21.277Z,6.93
2023-04-09T23:00:48.238Z,7.32
2023-04-09T23:03:15.103Z,6.05
2023-04-09T23:05:42.238Z,7.97
2023-04-09T23:08:09.214Z,7.18
2023-04-09T23:10:36.161Z,5.68
2023-04-09T23:13:02.855Z,7.00
2023-04-09T23:15:29.540Z,6.10
2023-04-09T23:17:56.292Z,6.43
2023-04-09T23:20:23.358Z,5.82
2023-04-09T23:22:50.424Z,6.35
2023-04-09T23:25:17.378Z,5.95
2023-04-09T23:27:44.387Z,6.65
2023-04-09T23:30:11.670Z,8.90
2023-04-09T23:32:38.294Z,9.77
2023-04-09T23:35:05.610Z,5.90
2023-04-09T23:37:32.177Z,6.53
2023-04-09T23:39:58.731Z,6.45
2023-04-09T23:42:26.870Z,8.43
2023-04-09T23:44:53.371Z,5.90
2023-04-09T23:47:19.875Z,6.03
2023-04-09T23:49:46.808Z,7.82
2023-04-09T23:52:13.362Z,5.65
2023-04-09T23:54:48.984Z,6.47
2023-04-09T23:57:15.531Z,6.47
2023-04-09T23:59:42.047Z,7.60
